sensor_id;sensor_type;location;lat;lon;timestamp;P1;durP1;ratioP1;P2;durP2;ratioP2
20727;SDS011;10525;50.154;8.198;2022-12-18T00:01:56;27.87;;;11.47;;
20727;SDS011;10525;50.154;8.198;2022-12-18T00:04:26;17.90;;;9.63;;
20727;SDS011;10525;50.154;8.198;2022-12-18T00:06:53;21.33;;;9.37;;
20727;SDS011;10525;50.154;8.198;2022-12-18T00:09:20;20.63;;;9.63;;
20727;SDS011;10525;50.154;8.198;2022-12-18T00:11:47;31.50;;;11.30;;
20727;SDS011;10525;50.154;8.198;2022-12-18T00:14:14;37.43;;;13.13;;
20727;SDS011;10525;50.154;8.198;2022-12-18T00:16:43;41.00;;;13.60;;
20727;SDS011;10525;50.154;8.198;2022-12-18T00:19:11;28.63;;;13.10;;
20727;SDS011;10525;50.154;8.198;2022-12-18T00:21:40;32.43;;;13.77;;
20727;SDS011;10525;50.154;8.198;2022-12-18T00:24:07;31.90;;;11.93;;
20727;SDS011;10525;50.154;8.198;2022-12-18T00:26:35;33.43;;;11.63;;
20727;SDS011;10525;50.154;8.198;2022-12-18T00:29:04;23.90;;;10.50;;
20727;SDS011;10525;50.154;8.198;2022-12-18T00:31:32;29.93;;;11.03;;
20727;SDS011;10525;50.154;8.198;2022-12-18T00:34:00;25.57;;;11.80;;
20727;SDS011;10525;50.154;8.198;2022-12-18T00:36:27;22.80;;;10.90;;
20727;SDS011;10525;50.154;8.198;2022-12-18T00:38:57;33.07;;;11.47;;
20727;SDS011;10525;50.154;8.198;2022-12-18T00:41:26;28.93;;;12.13;;
20727;SDS011;10525;50.154;8.198;2022-12-18T00:44:12;23.33;;;10.00;;
20727;SDS011;10525;50.154;8.198;2022-12-18T00:46:40;32.60;;;12.77;;
20727;SDS011;10525;50.154;8.198;2022-12-18T00:49:08;25.87;;;12.03;;
20727;SDS011;10525;50.154;8.198;2022-12-18T00:51:35;28.47;;;12.40;;
20727;SDS011;10525;50.154;8.198;2022-12-18T00:54:03;35.70;;;13.37;;
20727;SDS011;10525;50.154;8.198;2022-12-18T00:56:30;32.20;;;11.10;;
20727;SDS011;10525;50.154;8.198;2022-12-18T00:58:57;18.63;;;10.43;;
20727;SDS011;10525;50.154;8.198;2022-12-18T01:01:24;23.57;;;10.07;;
20727;SDS011;10525;50.154;8.198;2022-12-18T01:03:50;31.80;;;11.83;;
20727;SDS011;10525;50.154;8.198;2022-12-18T01:06:17;26.60;;;10.70;;
20727;SDS011;10525;50.154;8.198;2022-12-18T01:08:44;13.93;;;9.20;;
20727;SDS011;10525;50.154;8.198;2022-12-18T01:11:13;36.23;;;11.67;;
20727;SDS011;10525;50.154;8.198;2022-12-18T01:13:41;19.53;;;9.73;;
20727;SDS011;10525;50.154;8.198;2022-12-18T01:16:10;18.33;;;9.37;;
20727;SDS011;10525;50.154;8.198;2022-12-18T01:18:38;30.73;;;11.73;;
20727;SDS011;10525;50.154;8.198;2022-12-18T01:21:05;24.10;;;9.50;;
20727;SDS011;10525;50.154;8.198;2022-12-18T01:23:33;19.50;;;9.67;;
20727;SDS011;10525;50.154;8.198;2022-12-18T01:26:03;23.83;;;9.23;;
20727;SDS011;10525;50.154;8.198;2022-12-18T01:28:32;23.33;;;10.40;;
20727;SDS011;10525;50.154;8.198;2022-12-18T01:31:08;26.43;;;9.80;;
20727;SDS011;10525;50.154;8.198;2022-12-18T01:33:40;25.07;;;10.23;;
20727;SDS011;10525;50.154;8.198;2022-12-18T01:36:07;25.50;;;9.80;;
20727;SDS011;10525;50.154;8.198;2022-12-18T01:38:34;21.53;;;10.23;;
20727;SDS011;10525;50.154;8.198;2022-12-18T01:41:01;17.60;;;10.53;;
20727;SDS011;10525;50.154;8.198;2022-12-18T01:46:13;17.90;;;10.37;;
20727;SDS011;10525;50.154;8.198;2022-12-18T01:48:40;25.40;;;10.53;;
20727;SDS011;10525;50.154;8.198;2022-12-18T01:51:07;16.73;;;10.47;;
20727;SDS011;10525;50.154;8.198;2022-12-18T01:53:37;23.77;;;10.50;;
20727;SDS011;10525;50.154;8.198;2022-12-18T01:56:06;25.10;;;12.00;;
20727;SDS011;10525;50.154;8.198;2022-12-18T01:58:35;26.00;;;10.33;;
20727;SDS011;10525;50.154;8.198;2022-12-18T02:01:08;24.37;;;9.30;;
20727;SDS011;10525;50.154;8.198;2022-12-18T02:03:35;27.17;;;10.47;;
20727;SDS011;10525;50.154;8.198;2022-12-18T02:06:06;18.67;;;8.90;;
20727;SDS011;10525;50.154;8.198;2022-12-18T02:08:40;19.53;;;9.07;;
20727;SDS011;10525;50.154;8.198;2022-12-18T02:11:15;21.00;;;9.27;;
20727;SDS011;10525;50.154;8.198;2022-12-18T02:13:50;19.83;;;9.50;;
20727;SDS011;10525;50.154;8.198;2022-12-18T02:16:23;18.77;;;9.17;;
20727;SDS011;10525;50.154;8.198;2022-12-18T02:18:56;25.27;;;10.30;;
20727;SDS011;10525;50.154;8.198;2022-12-18T02:21:28;17.23;;;9.50;;
20727;SDS011;10525;50.154;8.198;2022-12-18T02:24:06;26.87;;;11.27;;
20727;SDS011;10525;50.154;8.198;2022-12-18T02:26:45;26.60;;;11.20;;
20727;SDS011;10525;50.154;8.198;2022-12-18T02:29:15;22.97;;;11.00;;
20727;SDS011;10525;50.154;8.198;2022-12-18T02:31:45;32.13;;;13.20;;
20727;SDS011;10525;50.154;8.198;2022-12-18T02:34:17;22.30;;;10.67;;
20727;SDS011;10525;50.154;8.198;2022-12-18T02:36:45;29.50;;;13.40;;
20727;SDS011;10525;50.154;8.198;2022-12-18T02:39:14;28.47;;;12.10;;
20727;SDS011;10525;50.154;8.198;2022-12-18T02:41:42;35.73;;;12.73;;
20727;SDS011;10525;50.154;8.198;2022-12-18T02:44:12;28.00;;;12.80;;
20727;SDS011;10525;50.154;8.198;2022-12-18T02:46:39;22.80;;;12.30;;
20727;SDS011;10525;50.154;8.198;2022-12-18T02:49:11;34.97;;;13.03;;
20727;SDS011;10525;50.154;8.198;2022-12-18T02:51:48;31.47;;;11.27;;
20727;SDS011;10525;50.154;8.198;2022-12-18T02:54:22;36.53;;;11.90;;
20727;SDS011;10525;50.154;8.198;2022-12-18T02:56:57;26.17;;;10.80;;
20727;SDS011;10525;50.154;8.198;2022-12-18T02:59:30;27.40;;;13.03;;
20727;SDS011;10525;50.154;8.198;2022-12-18T03:02:05;38.40;;;13.13;;
20727;SDS011;10525;50.154;8.198;2022-12-18T03:04:42;32.03;;;12.73;;
20727;SDS011;10525;50.154;8.198;2022-12-18T03:07:15;29.63;;;10.80;;
20727;SDS011;10525;50.154;8.198;2022-12-18T03:09:46;35.00;;;12.70;;
20727;SDS011;10525;50.154;8.198;2022-12-18T03:12:20;45.10;;;14.67;;
20727;SDS011;10525;50.154;8.198;2022-12-18T03:14:50;28.13;;;13.13;;
20727;SDS011;10525;50.154;8.198;2022-12-18T03:17:22;35.40;;;14.00;;
20727;SDS011;10525;50.154;8.198;2022-12-18T03:19:51;30.13;;;12.90;;
20727;SDS011;10525;50.154;8.198;2022-12-18T03:22:21;27.77;;;11.87;;
20727;SDS011;10525;50.154;8.198;2022-12-18T03:24:51;34.13;;;12.70;;
20727;SDS011;10525;50.154;8.198;2022-12-18T03:27:21;28.63;;;11.60;;
20727;SDS011;10525;50.154;8.198;2022-12-18T03:29:50;27.80;;;12.40;;
20727;SDS011;10525;50.154;8.198;2022-12-18T03:32:20;37.60;;;13.63;;
20727;SDS011;10525;50.154;8.198;2022-12-18T03:34:53;31.47;;;12.70;;
20727;SDS011;10525;50.154;8.198;2022-12-18T03:37:24;31.07;;;11.83;;
20727;SDS011;10525;50.154;8.198;2022-12-18T03:39:51;29.87;;;12.60;;
20727;SDS011;10525;50.154;8.198;2022-12-18T03:42:21;24.27;;;11.27;;
20727;SDS011;10525;50.154;8.198;2022-12-18T03:44:55;40.03;;;12.60;;
20727;SDS011;10525;50.154;8.198;2022-12-18T03:47:27;37.17;;;12.17;;
20727;SDS011;10525;50.154;8.198;2022-12-18T03:49:57;30.73;;;12.07;;
20727;SDS011;10525;50.154;8.198;2022-12-18T03:52:30;36.93;;;12.97;;
20727;SDS011;10525;50.154;8.198;2022-12-18T03:55:01;45.13;;;13.47;;
20727;SDS011;10525;50.154;8.198;2022-12-18T03:57:32;35.23;;;12.43;;
20727;SDS011;10525;50.154;8.198;2022-12-18T04:00:00;30.63;;;12.00;;
20727;SDS011;10525;50.154;8.198;2022-12-18T04:02:31;27.07;;;11.73;;
20727;SDS011;10525;50.154;8.198;2022-12-18T04:05:00;41.00;;;12.77;;
20727;SDS011;10525;50.154;8.198;2022-12-18T04:07:30;29.03;;;13.03;;
20727;SDS011;10525;50.154;8.198;2022-12-18T04:09:58;34.17;;;12.63;;
20727;SDS011;10525;50.154;8.198;2022-12-18T04:12:28;27.63;;;12.10;;
20727;SDS011;10525;50.154;8.198;2022-12-18T04:14:56;37.60;;;13.20;;
20727;SDS011;10525;50.154;8.198;2022-12-18T04:17:23;33.33;;;13.07;;
20727;SDS011;10525;50.154;8.198;2022-12-18T04:19:50;39.53;;;11.90;;
20727;SDS011;10525;50.154;8.198;2022-12-18T04:22:17;32.47;;;12.03;;
20727;SDS011;10525;50.154;8.198;2022-12-18T04:24:43;31.63;;;13.03;;
20727;SDS011;10525;50.154;8.198;2022-12-18T04:27:10;40.20;;;11.23;;
20727;SDS011;10525;50.154;8.198;2022-12-18T04:29:37;28.30;;;11.53;;
20727;SDS011;10525;50.154;8.198;2022-12-18T04:32:05;32.27;;;13.27;;
20727;SDS011;10525;50.154;8.198;2022-12-18T04:34:32;33.77;;;13.40;;
20727;SDS011;10525;50.154;8.198;2022-12-18T04:36:59;27.63;;;11.30;;
20727;SDS011;10525;50.154;8.198;2022-12-18T04:39:26;32.00;;;11.93;;
20727;SDS011;10525;50.154;8.198;2022-12-18T04:41:53;27.90;;;11.57;;
20727;SDS011;10525;50.154;8.198;2022-12-18T04:44:19;23.03;;;10.37;;
20727;SDS011;10525;50.154;8.198;2022-12-18T04:46:46;27.17;;;11.90;;
20727;SDS011;10525;50.154;8.198;2022-12-18T04:49:14;46.43;;;13.70;;
20727;SDS011;10525;50.154;8.198;2022-12-18T04:51:40;36.23;;;12.93;;
20727;SDS011;10525;50.154;8.198;2022-12-18T04:54:07;29.37;;;11.50;;
20727;SDS011;10525;50.154;8.198;2022-12-18T04:56:34;39.60;;;15.03;;
20727;SDS011;10525;50.154;8.198;2022-12-18T04:59:01;32.70;;;11.93;;
20727;SDS011;10525;50.154;8.198;2022-12-18T05:01:27;34.40;;;12.47;;
20727;SDS011;10525;50.154;8.198;2022-12-18T05:03:54;37.00;;;13.57;;
20727;SDS011;10525;50.154;8.198;2022-12-18T05:06:22;35.10;;;13.80;;
20727;SDS011;10525;50.154;8.198;2022-12-18T05:08:49;30.90;;;12.87;;
20727;SDS011;10525;50.154;8.198;2022-12-18T05:11:15;40.27;;;13.87;;
20727;SDS011;10525;50.154;8.198;2022-12-18T05:13:43;30.60;;;11.80;;
20727;SDS011;10525;50.154;8.198;2022-12-18T05:16:10;33.70;;;12.63;;
20727;SDS011;10525;50.154;8.198;2022-12-18T05:18:39;34.43;;;12.17;;
20727;SDS011;10525;50.154;8.198;2022-12-18T05:21:06;36.30;;;13.03;;
20727;SDS011;10525;50.154;8.198;2022-12-18T05:23:34;30.60;;;12.63;;
20727;SDS011;10525;50.154;8.198;2022-12-18T05:26:02;40.17;;;13.33;;
20727;SDS011;10525;50.154;8.198;2022-12-18T05:28:31;42.27;;;12.73;;
20727;SDS011;10525;50.154;8.198;2022-12-18T05:31:00;42.63;;;13.27;;
20727;SDS011;10525;50.154;8.198;2022-12-18T05:33:28;33.20;;;11.57;;
20727;SDS011;10525;50.154;8.198;2022-12-18T05:35:57;37.30;;;13.07;;
20727;SDS011;10525;50.154;8.198;2022-12-18T05:38:26;43.00;;;12.47;;
20727;SDS011;10525;50.154;8.198;2022-12-18T05:40:55;35.73;;;13.80;;
20727;SDS011;10525;50.154;8.198;2022-12-18T05:43:23;27.80;;;12.23;;
20727;SDS011;10525;50.154;8.198;2022-12-18T05:45:53;29.57;;;12.23;;
20727;SDS011;10525;50.154;8.198;2022-12-18T05:48:21;34.10;;;12.27;;
20727;SDS011;10525;50.154;8.198;2022-12-18T05:50:48;33.23;;;11.00;;
20727;SDS011;10525;50.154;8.198;2022-12-18T05:53:16;31.50;;;13.20;;
20727;SDS011;10525;50.154;8.198;2022-12-18T05:55:44;28.63;;;12.37;;
20727;SDS011;10525;50.154;8.198;2022-12-18T05:58:13;32.57;;;12.03;;
20727;SDS011;10525;50.154;8.198;2022-12-18T06:00:41;34.10;;;11.83;;
20727;SDS011;10525;50.154;8.198;2022-12-18T06:03:12;33.13;;;12.87;;
20727;SDS011;10525;50.154;8.198;2022-12-18T06:05:40;25.57;;;11.87;;
20727;SDS011;10525;50.154;8.198;2022-12-18T06:08:08;28.03;;;12.77;;
20727;SDS011;10525;50.154;8.198;2022-12-18T06:10:35;33.00;;;12.73;;
20727;SDS011;10525;50.154;8.198;2022-12-18T06:13:02;29.47;;;11.97;;
20727;SDS011;10525;50.154;8.198;2022-12-18T06:15:31;34.13;;;11.70;;
20727;SDS011;10525;50.154;8.198;2022-12-18T06:17:58;27.10;;;12.17;;
20727;SDS011;10525;50.154;8.198;2022-12-18T06:20:26;26.83;;;11.90;;
20727;SDS011;10525;50.154;8.198;2022-12-18T06:22:52;32.23;;;11.63;;
20727;SDS011;10525;50.154;8.198;2022-12-18T06:25:19;32.57;;;11.03;;
20727;SDS011;10525;50.154;8.198;2022-12-18T06:27:46;37.73;;;10.87;;
20727;SDS011;10525;50.154;8.198;2022-12-18T06:30:13;36.67;;;13.23;;
20727;SDS011;10525;50.154;8.198;2022-12-18T06:32:42;29.57;;;11.33;;
20727;SDS011;10525;50.154;8.198;2022-12-18T06:35:09;35.07;;;11.97;;
20727;SDS011;10525;50.154;8.198;2022-12-18T06:37:36;28.67;;;11.50;;
20727;SDS011;10525;50.154;8.198;2022-12-18T06:40:03;33.40;;;10.57;;
20727;SDS011;10525;50.154;8.198;2022-12-18T06:42:30;31.73;;;10.57;;
20727;SDS011;10525;50.154;8.198;2022-12-18T06:44:57;28.50;;;11.20;;
20727;SDS011;10525;50.154;8.198;2022-12-18T06:47:24;31.30;;;12.47;;
20727;SDS011;10525;50.154;8.198;2022-12-18T06:49:52;28.17;;;11.73;;
20727;SDS011;10525;50.154;8.198;2022-12-18T06:52:18;36.37;;;12.57;;
20727;SDS011;10525;50.154;8.198;2022-12-18T06:54:45;31.03;;;10.63;;
20727;SDS011;10525;50.154;8.198;2022-12-18T06:57:12;28.30;;;11.13;;
20727;SDS011;10525;50.154;8.198;2022-12-18T06:59:38;27.37;;;11.13;;
20727;SDS011;10525;50.154;8.198;2022-12-18T07:02:05;27.13;;;10.93;;
20727;SDS011;10525;50.154;8.198;2022-12-18T07:04:32;28.33;;;11.63;;
20727;SDS011;10525;50.154;8.198;2022-12-18T07:07:00;36.73;;;12.00;;
20727;SDS011;10525;50.154;8.198;2022-12-18T07:09:26;25.87;;;10.30;;
20727;SDS011;10525;50.154;8.198;2022-12-18T07:11:53;30.60;;;11.83;;
20727;SDS011;10525;50.154;8.198;2022-12-18T07:14:20;28.87;;;12.03;;
20727;SDS011;10525;50.154;8.198;2022-12-18T07:16:47;32.67;;;12.90;;
20727;SDS011;10525;50.154;8.198;2022-12-18T07:19:13;35.37;;;11.87;;
20727;SDS011;10525;50.154;8.198;2022-12-18T07:21:40;31.97;;;11.40;;
20727;SDS011;10525;50.154;8.198;2022-12-18T07:24:08;24.13;;;10.67;;
20727;SDS011;10525;50.154;8.198;2022-12-18T07:26:35;29.07;;;11.43;;
20727;SDS011;10525;50.154;8.198;2022-12-18T07:29:02;30.10;;;9.70;;
20727;SDS011;10525;50.154;8.198;2022-12-18T07:31:28;27.93;;;9.97;;
20727;SDS011;10525;50.154;8.198;2022-12-18T07:33:55;22.77;;;9.60;;
20727;SDS011;10525;50.154;8.198;2022-12-18T07:36:22;32.00;;;11.87;;
20727;SDS011;10525;50.154;8.198;2022-12-18T07:38:49;24.10;;;9.87;;
20727;SDS011;10525;50.154;8.198;2022-12-18T07:41:18;18.83;;;9.80;;
20727;SDS011;10525;50.154;8.198;2022-12-18T07:43:45;18.40;;;9.97;;
20727;SDS011;10525;50.154;8.198;2022-12-18T07:46:13;19.27;;;9.20;;
20727;SDS011;10525;50.154;8.198;2022-12-18T07:48:40;20.67;;;8.50;;
20727;SDS011;10525;50.154;8.198;2022-12-18T07:51:07;30.23;;;10.13;;
20727;SDS011;10525;50.154;8.198;2022-12-18T07:53:37;28.30;;;10.53;;
20727;SDS011;10525;50.154;8.198;2022-12-18T07:56:05;21.20;;;9.23;;
20727;SDS011;10525;50.154;8.198;2022-12-18T07:58:35;25.23;;;9.73;;
20727;SDS011;10525;50.154;8.198;2022-12-18T08:01:02;30.23;;;10.00;;
20727;SDS011;10525;50.154;8.198;2022-12-18T08:03:30;26.23;;;9.87;;
20727;SDS011;10525;50.154;8.198;2022-12-18T08:05:58;32.53;;;12.00;;
20727;SDS011;10525;50.154;8.198;2022-12-18T08:08:26;21.97;;;9.87;;
20727;SDS011;10525;50.154;8.198;2022-12-18T08:10:53;25.67;;;10.30;;
20727;SDS011;10525;50.154;8.198;2022-12-18T08:13:19;26.87;;;9.63;;
20727;SDS011;10525;50.154;8.198;2022-12-18T08:15:48;24.67;;;10.70;;
20727;SDS011;10525;50.154;8.198;2022-12-18T08:18:22;22.57;;;9.47;;
20727;SDS011;10525;50.154;8.198;2022-12-18T08:20:49;26.77;;;10.53;;
20727;SDS011;10525;50.154;8.198;2022-12-18T08:23:16;22.73;;;9.83;;
20727;SDS011;10525;50.154;8.198;2022-12-18T08:25:43;32.60;;;11.70;;
20727;SDS011;10525;50.154;8.198;2022-12-18T08:28:10;22.63;;;10.27;;
20727;SDS011;10525;50.154;8.198;2022-12-18T08:30:36;35.13;;;12.07;;
20727;SDS011;10525;50.154;8.198;2022-12-18T08:33:05;30.87;;;11.33;;
20727;SDS011;10525;50.154;8.198;2022-12-18T08:35:34;23.97;;;11.20;;
20727;SDS011;10525;50.154;8.198;2022-12-18T08:38:01;36.37;;;10.90;;
20727;SDS011;10525;50.154;8.198;2022-12-18T08:40:28;29.73;;;12.70;;
20727;SDS011;10525;50.154;8.198;2022-12-18T08:42:55;25.47;;;11.27;;
20727;SDS011;10525;50.154;8.198;2022-12-18T08:45:39;18.53;;;9.30;;
20727;SDS011;10525;50.154;8.198;2022-12-18T08:48:07;30.40;;;11.30;;
20727;SDS011;10525;50.154;8.198;2022-12-18T08:50:34;30.97;;;12.17;;
20727;SDS011;10525;50.154;8.198;2022-12-18T08:53:00;24.77;;;10.47;;
20727;SDS011;10525;50.154;8.198;2022-12-18T08:55:27;33.67;;;13.60;;
20727;SDS011;10525;50.154;8.198;2022-12-18T08:57:54;30.63;;;11.40;;
20727;SDS011;10525;50.154;8.198;2022-12-18T09:00:21;38.30;;;11.53;;
20727;SDS011;10525;50.154;8.198;2022-12-18T09:02:48;41.67;;;12.57;;
20727;SDS011;10525;50.154;8.198;2022-12-18T09:05:16;26.10;;;10.40;;
20727;SDS011;10525;50.154;8.198;2022-12-18T09:07:43;31.63;;;12.93;;
20727;SDS011;10525;50.154;8.198;2022-12-18T09:10:09;33.40;;;12.23;;
20727;SDS011;10525;50.154;8.198;2022-12-18T09:12:36;32.23;;;13.03;;
20727;SDS011;10525;50.154;8.198;2022-12-18T09:15:03;34.23;;;13.53;;
20727;SDS011;10525;50.154;8.198;2022-12-18T09:17:30;46.10;;;14.77;;
20727;SDS011;10525;50.154;8.198;2022-12-18T09:19:57;31.77;;;11.93;;
20727;SDS011;10525;50.154;8.198;2022-12-18T09:22:25;32.93;;;13.03;;
20727;SDS011;10525;50.154;8.198;2022-12-18T09:24:52;37.40;;;13.23;;
20727;SDS011;10525;50.154;8.198;2022-12-18T09:27:18;35.17;;;13.43;;
20727;SDS011;10525;50.154;8.198;2022-12-18T09:29:45;40.03;;;15.50;;
20727;SDS011;10525;50.154;8.198;2022-12-18T09:32:12;27.43;;;11.80;;
20727;SDS011;10525;50.154;8.198;2022-12-18T09:34:39;48.80;;;16.27;;
20727;SDS011;10525;50.154;8.198;2022-12-18T09:37:06;40.13;;;14.17;;
20727;SDS011;10525;50.154;8.198;2022-12-18T09:39:34;41.73;;;16.67;;
20727;SDS011;10525;50.154;8.198;2022-12-18T09:42:00;39.60;;;16.00;;
20727;SDS011;10525;50.154;8.198;2022-12-18T09:44:28;37.07;;;14.30;;
20727;SDS011;10525;50.154;8.198;2022-12-18T09:47:03;37.57;;;14.57;;
20727;SDS011;10525;50.154;8.198;2022-12-18T09:49:34;41.77;;;14.00;;
20727;SDS011;10525;50.154;8.198;2022-12-18T09:52:08;27.90;;;13.10;;
20727;SDS011;10525;50.154;8.198;2022-12-18T09:54:40;36.03;;;13.73;;
20727;SDS011;10525;50.154;8.198;2022-12-18T09:57:16;43.00;;;14.17;;
20727;SDS011;10525;50.154;8.198;2022-12-18T09:59:46;42.00;;;14.07;;
20727;SDS011;10525;50.154;8.198;2022-12-18T10:02:19;33.47;;;13.73;;
20727;SDS011;10525;50.154;8.198;2022-12-18T10:04:50;38.63;;;14.77;;
20727;SDS011;10525;50.154;8.198;2022-12-18T10:07:29;40.97;;;14.93;;
20727;SDS011;10525;50.154;8.198;2022-12-18T10:10:04;39.90;;;15.43;;
20727;SDS011;10525;50.154;8.198;2022-12-18T10:12:39;40.33;;;14.70;;
20727;SDS011;10525;50.154;8.198;2022-12-18T10:15:13;33.73;;;13.57;;
20727;SDS011;10525;50.154;8.198;2022-12-18T10:17:49;23.90;;;10.67;;
20727;SDS011;10525;50.154;8.198;2022-12-18T10:20:23;41.77;;;15.23;;
20727;SDS011;10525;50.154;8.198;2022-12-18T10:22:55;35.43;;;12.80;;
20727;SDS011;10525;50.154;8.198;2022-12-18T10:25:31;34.07;;;13.57;;
20727;SDS011;10525;50.154;8.198;2022-12-18T10:28:07;33.23;;;14.47;;
20727;SDS011;10525;50.154;8.198;2022-12-18T10:30:37;34.30;;;14.60;;
20727;SDS011;10525;50.154;8.198;2022-12-18T10:33:05;47.67;;;15.53;;
20727;SDS011;10525;50.154;8.198;2022-12-18T10:35:37;36.50;;;15.57;;
20727;SDS011;10525;50.154;8.198;2022-12-18T10:38:20;32.40;;;13.50;;
20727;SDS011;10525;50.154;8.198;2022-12-18T10:40:50;35.47;;;13.87;;
20727;SDS011;10525;50.154;8.198;2022-12-18T10:43:22;46.83;;;15.30;;
20727;SDS011;10525;50.154;8.198;2022-12-18T10:48:50;36.17;;;13.47;;
20727;SDS011;10525;50.154;8.198;2022-12-18T10:51:19;36.33;;;13.93;;
20727;SDS011;10525;50.154;8.198;2022-12-18T10:53:51;49.20;;;15.97;;
20727;SDS011;10525;50.154;8.198;2022-12-18T10:56:22;36.20;;;14.47;;
20727;SDS011;10525;50.154;8.198;2022-12-18T10:58:55;45.37;;;16.47;;
20727;SDS011;10525;50.154;8.198;2022-12-18T11:01:24;41.90;;;15.77;;
20727;SDS011;10525;50.154;8.198;2022-12-18T11:03:58;39.20;;;14.37;;
20727;SDS011;10525;50.154;8.198;2022-12-18T11:06:26;33.13;;;14.03;;
20727;SDS011;10525;50.154;8.198;2022-12-18T11:08:57;56.97;;;17.00;;
20727;SDS011;10525;50.154;8.198;2022-12-18T11:11:26;35.43;;;13.63;;
20727;SDS011;10525;50.154;8.198;2022-12-18T11:13:57;43.83;;;14.67;;
20727;SDS011;10525;50.154;8.198;2022-12-18T11:16:27;34.87;;;14.40;;
20727;SDS011;10525;50.154;8.198;2022-12-18T11:18:55;46.80;;;16.83;;
20727;SDS011;10525;50.154;8.198;2022-12-18T11:21:41;32.67;;;13.67;;
20727;SDS011;10525;50.154;8.198;2022-12-18T11:24:13;40.57;;;14.27;;
20727;SDS011;10525;50.154;8.198;2022-12-18T11:26:48;42.13;;;15.30;;
20727;SDS011;10525;50.154;8.198;2022-12-18T11:29:16;43.60;;;16.30;;
20727;SDS011;10525;50.154;8.198;2022-12-18T11:31:43;36.07;;;14.83;;
20727;SDS011;10525;50.154;8.198;2022-12-18T11:34:11;37.23;;;14.40;;
20727;SDS011;10525;50.154;8.198;2022-12-18T11:36:42;51.33;;;17.37;;
20727;SDS011;10525;50.154;8.198;2022-12-18T11:39:12;47.53;;;17.43;;
20727;SDS011;10525;50.154;8.198;2022-12-18T11:41:46;43.43;;;17.60;;
20727;SDS011;10525;50.154;8.198;2022-12-18T11:44:38;42.17;;;16.63;;
20727;SDS011;10525;50.154;8.198;2022-12-18T11:47:13;51.13;;;17.57;;
20727;SDS011;10525;50.154;8.198;2022-12-18T11:49:47;50.30;;;17.37;;
20727;SDS011;10525;50.154;8.198;2022-12-18T11:52:16;45.40;;;15.80;;
20727;SDS011;10525;50.154;8.198;2022-12-18T11:54:47;43.27;;;15.87;;
20727;SDS011;10525;50.154;8.198;2022-12-18T11:57:22;45.40;;;18.13;;
20727;SDS011;10525;50.154;8.198;2022-12-18T12:00:01;35.73;;;15.20;;
20727;SDS011;10525;50.154;8.198;2022-12-18T12:02:41;46.63;;;15.90;;
20727;SDS011;10525;50.154;8.198;2022-12-18T12:05:33;42.03;;;17.97;;
20727;SDS011;10525;50.154;8.198;2022-12-18T12:08:10;53.73;;;17.83;;
20727;SDS011;10525;50.154;8.198;2022-12-18T12:10:48;51.17;;;19.00;;
20727;SDS011;10525;50.154;8.198;2022-12-18T12:13:26;51.20;;;18.70;;
20727;SDS011;10525;50.154;8.198;2022-12-18T12:16:04;49.67;;;18.00;;
20727;SDS011;10525;50.154;8.198;2022-12-18T12:18:41;49.37;;;16.67;;
20727;SDS011;10525;50.154;8.198;2022-12-18T12:21:20;54.13;;;17.37;;
20727;SDS011;10525;50.154;8.198;2022-12-18T12:23:55;48.63;;;17.70;;
20727;SDS011;10525;50.154;8.198;2022-12-18T12:26:29;56.93;;;19.27;;
20727;SDS011;10525;50.154;8.198;2022-12-18T12:29:06;54.30;;;18.50;;
20727;SDS011;10525;50.154;8.198;2022-12-18T12:31:55;55.10;;;19.50;;
20727;SDS011;10525;50.154;8.198;2022-12-18T12:34:34;48.17;;;17.70;;
20727;SDS011;10525;50.154;8.198;2022-12-18T12:37:15;57.37;;;19.33;;
20727;SDS011;10525;50.154;8.198;2022-12-18T12:39:48;51.40;;;16.97;;
20727;SDS011;10525;50.154;8.198;2022-12-18T12:42:20;54.57;;;18.43;;
20727;SDS011;10525;50.154;8.198;2022-12-18T12:45:15;65.57;;;20.90;;
20727;SDS011;10525;50.154;8.198;2022-12-18T12:47:47;48.90;;;16.63;;
20727;SDS011;10525;50.154;8.198;2022-12-18T12:50:17;52.07;;;18.70;;
20727;SDS011;10525;50.154;8.198;2022-12-18T12:52:46;53.43;;;19.47;;
20727;SDS011;10525;50.154;8.198;2022-12-18T12:55:16;48.97;;;17.23;;
20727;SDS011;10525;50.154;8.198;2022-12-18T12:57:47;56.73;;;20.53;;
20727;SDS011;10525;50.154;8.198;2022-12-18T13:00:22;60.67;;;17.87;;
20727;SDS011;10525;50.154;8.198;2022-12-18T13:02:52;41.67;;;15.53;;
20727;SDS011;10525;50.154;8.198;2022-12-18T13:05:30;60.83;;;19.70;;
20727;SDS011;10525;50.154;8.198;2022-12-18T13:08:05;53.93;;;18.77;;
20727;SDS011;10525;50.154;8.198;2022-12-18T13:10:34;55.67;;;17.67;;
20727;SDS011;10525;50.154;8.198;2022-12-18T13:13:03;52.07;;;19.00;;
20727;SDS011;10525;50.154;8.198;2022-12-18T13:15:32;54.30;;;18.37;;
20727;SDS011;10525;50.154;8.198;2022-12-18T13:18:10;57.23;;;20.83;;
20727;SDS011;10525;50.154;8.198;2022-12-18T13:20:43;52.47;;;19.20;;
20727;SDS011;10525;50.154;8.198;2022-12-18T13:23:31;48.73;;;19.03;;
20727;SDS011;10525;50.154;8.198;2022-12-18T13:25:59;57.53;;;18.77;;
20727;SDS011;10525;50.154;8.198;2022-12-18T13:28:52;49.60;;;17.67;;
20727;SDS011;10525;50.154;8.198;2022-12-18T13:34:35;57.97;;;20.17;;
20727;SDS011;10525;50.154;8.198;2022-12-18T13:43:23;60.00;;;18.30;;
20727;SDS011;10525;50.154;8.198;2022-12-18T13:48:53;53.87;;;18.20;;
20727;SDS011;10525;50.154;8.198;2022-12-18T13:51:26;51.40;;;16.30;;
20727;SDS011;10525;50.154;8.198;2022-12-18T13:53:55;59.63;;;18.43;;
20727;SDS011;10525;50.154;8.198;2022-12-18T13:56:25;53.73;;;18.73;;
20727;SDS011;10525;50.154;8.198;2022-12-18T13:59:03;67.00;;;18.67;;
20727;SDS011;10525;50.154;8.198;2022-12-18T14:01:46;50.27;;;17.67;;
20727;SDS011;10525;50.154;8.198;2022-12-18T14:04:18;61.47;;;19.10;;
20727;SDS011;10525;50.154;8.198;2022-12-18T14:06:51;52.23;;;17.93;;
20727;SDS011;10525;50.154;8.198;2022-12-18T14:09:21;52.83;;;19.83;;
20727;SDS011;10525;50.154;8.198;2022-12-18T14:11:52;56.13;;;19.77;;
20727;SDS011;10525;50.154;8.198;2022-12-18T14:14:41;62.57;;;19.20;;
20727;SDS011;10525;50.154;8.198;2022-12-18T14:17:12;53.10;;;18.47;;
20727;SDS011;10525;50.154;8.198;2022-12-18T14:19:41;68.00;;;20.87;;
20727;SDS011;10525;50.154;8.198;2022-12-18T14:22:16;49.83;;;17.27;;
20727;SDS011;10525;50.154;8.198;2022-12-18T14:24:44;50.17;;;17.73;;
20727;SDS011;10525;50.154;8.198;2022-12-18T14:27:21;60.93;;;18.53;;
20727;SDS011;10525;50.154;8.198;2022-12-18T14:29:50;49.37;;;17.77;;
20727;SDS011;10525;50.154;8.198;2022-12-18T14:32:19;47.07;;;18.27;;
20727;SDS011;10525;50.154;8.198;2022-12-18T14:34:47;52.13;;;19.57;;
20727;SDS011;10525;50.154;8.198;2022-12-18T14:37:16;269.03;;;63.07;;
20727;SDS011;10525;50.154;8.198;2022-12-18T14:39:52;71.20;;;21.83;;
20727;SDS011;10525;50.154;8.198;2022-12-18T14:42:23;117.43;;;32.10;;
20727;SDS011;10525;50.154;8.198;2022-12-18T14:47:56;54.07;;;18.60;;
20727;SDS011;10525;50.154;8.198;2022-12-18T14:50:23;68.43;;;20.40;;
20727;SDS011;10525;50.154;8.198;2022-12-18T14:52:50;70.80;;;20.53;;
20727;SDS011;10525;50.154;8.198;2022-12-18T14:55:17;105.40;;;27.50;;
20727;SDS011;10525;50.154;8.198;2022-12-18T14:57:45;65.20;;;21.83;;
20727;SDS011;10525;50.154;8.198;2022-12-18T15:00:17;63.40;;;19.13;;
20727;SDS011;10525;50.154;8.198;2022-12-18T15:02:45;65.60;;;20.97;;